Time;durP1;ratioP1;P1;durP2;ratioP2;P2;SDS_P1;SDS_P2;PMS_P1;PMS_P2;Temp;Humidity;BMP_temperature;BMP_pressure;BME280_temperature;BME280_humidity;BME280_pressure;Samples;Min_cycle;Max_cycle;Signal;HPM_P1;HPM_P2
2022/11/16 00:00:15;;;;;;;28.08;24.98;;;;;;;;;;5078367;28;20102;-71
2022/11/16 00:02:40;;;;;;;25.17;20.20;;;;;;;;;;5069816;28;20020;-74
2022/11/16 00:05:05;;;;;;;24.15;20.73;;;;;;;;;;5077442;28;20060;-74
2022/11/16 00:07:31;;;;;;;21.52;18.70;;;;;;;;;;5080375;28;20430;-72
2022/11/16 00:09:56;;;;;;;27.65;24.73;;;;;;;;;;5073313;28;20024;-71
2022/11/16 00:12:21;;;;;;;25.95;21.42;;;;;;;;;;5070095;28;21145;-74
2022/11/16 00:14:46;;;;;;;29.08;24.20;;;;;;;;;;5074886;28;20040;-74
2022/11/16 00:17:12;;;;;;;32.60;28.23;;;;;;;;;;5070378;28;20020;-73
2022/11/16 00:19:37;;;;;;;28.50;23.40;;;;;;;;;;5067752;28;20048;-72
2022/11/16 00:22:02;;;;;;;23.05;19.73;;;;;;;;;;5066590;28;20490;-73
2022/11/16 00:24:28;;;;;;;22.90;19.10;;;;;;;;;;5068569;28;20450;-71
2022/11/16 00:26:54;;;;;;;21.95;19.13;;;;;;;;;;5049495;28;20051;-74
2022/11/16 00:29:20;;;;;;;22.73;19.50;;;;;;;;;;5072714;28;20420;-71
2022/11/16 00:31:46;;;;;;;21.05;18.30;;;;;;;;;;5068598;28;20032;-73
2022/11/16 00:34:11;;;;;;;20.77;17.98;;;;;;;;;;5067886;28;20096;-70
2022/11/16 00:36:37;;;;;;;21.40;18.55;;;;;;;;;;5078332;28;20670;-73
2022/11/16 00:39:02;;;;;;;26.58;21.58;;;;;;;;;;5077526;28;20026;-70
2022/11/16 00:41:28;;;;;;;21.92;19.25;;;;;;;;;;5080672;28;20029;-71
2022/11/16 00:43:53;;;;;;;27.02;22.60;;;;;;;;;;5080637;28;20024;-70
2022/11/16 00:46:19;;;;;;;28.05;23.83;;;;;;;;;;5061200;28;20067;-70
2022/11/16 00:48:44;;;;;;;33.58;29.98;;;;;;;;;;5072081;28;20019;-71
2022/11/16 00:51:10;;;;;;;28.33;24.55;;;;;;;;;;5070428;28;20085;-72
2022/11/16 00:53:35;;;;;;;32.03;28.13;;;;;;;;;;5081244;28;20478;-75
2022/11/16 00:56:00;;;;;;;26.05;22.10;;;;;;;;;;5068993;28;20059;-72
2022/11/16 00:58:26;;;;;;;43.22;37.72;;;;;;;;;;5079459;28;20032;-73
2022/11/16 01:00:51;;;;;;;33.47;27.70;;;;;;;;;;5077924;28;20131;-72
2022/11/16 01:03:16;;;;;;;38.72;34.20;;;;;;;;;;5080009;28;20093;-72
2022/11/16 01:05:41;;;;;;;22.27;18.17;;;;;;;;;;5074547;28;20035;-72
2022/11/16 01:08:07;;;;;;;21.65;18.42;;;;;;;;;;5073969;28;20035;-71
2022/11/16 01:10:32;;;;;;;19.15;16.98;;;;;;;;;;5064434;28;20024;-71
2022/11/16 01:12:57;;;;;;;18.38;16.00;;;;;;;;;;5081834;28;20036;-71
2022/11/16 01:15:24;;;;;;;25.27;19.23;;;;;;;;;;5074115;28;20098;-71
2022/11/16 01:17:49;;;;;;;25.35;20.83;;;;;;;;;;5074503;28;20040;-72
2022/11/16 01:20:16;;;;;;;35.17;22.52;;;;;;;;;;5081486;28;20020;-72
2022/11/16 01:22:42;;;;;;;57.95;36.03;;;;;;;;;;5072217;28;20176;-72
2022/11/16 01:25:07;;;;;;;37.78;28.25;;;;;;;;;;5060655;28;20499;-72
2022/11/16 01:27:33;;;;;;;35.75;29.15;;;;;;;;;;5069237;28;20028;-72
2022/11/16 01:29:58;;;;;;;29.88;18.08;;;;;;;;;;5078509;28;20024;-74
2022/11/16 01:32:23;;;;;;;28.25;17.73;;;;;;;;;;5080592;28;20024;-70
2022/11/16 01:34:49;;;;;;;64.72;51.20;;;;;;;;;;5078658;28;20043;-71
2022/11/16 01:37:15;;;;;;;42.70;33.33;;;;;;;;;;5073741;28;20028;-70
2022/11/16 01:39:40;;;;;;;34.80;27.60;;;;;;;;;;5072822;28;20039;-70
2022/11/16 01:42:05;;;;;;;23.38;19.25;;;;;;;;;;5072408;28;20028;-72
2022/11/16 01:44:31;;;;;;;29.42;23.80;;;;;;;;;;5077248;28;20036;-72
2022/11/16 01:46:59;;;;;;;34.88;22.45;;;;;;;;;;5080967;28;20032;-70
2022/11/16 01:49:27;;;;;;;34.43;25.47;;;;;;;;;;5080162;28;20447;-70
2022/11/16 01:51:54;;;;;;;71.70;49.75;;;;;;;;;;5083427;28;20024;-71
2022/11/16 01:54:19;;;;;;;52.35;34.78;;;;;;;;;;5082087;28;20067;-72
2022/11/16 01:56:46;;;;;;;41.28;26.40;;;;;;;;;;5073856;28;20089;-71
2022/11/16 01:59:12;;;;;;;52.95;33.08;;;;;;;;;;5076678;28;20452;-70
2022/11/16 02:01:38;;;;;;;158.98;30.17;;;;;;;;;;5076239;28;20072;-70
2022/11/16 02:04:03;;;;;;;39.88;22.23;;;;;;;;;;5072951;28;20027;-72
2022/11/16 02:06:38;;;;;;;66.03;24.48;;;;;;;;;;5066127;28;20028;-69
2022/11/16 02:11:47;;;;;;;50.53;24.45;;;;;;;;;;5077064;28;20054;-70
2022/11/16 02:14:32;;;;;;;65.80;34.85;;;;;;;;;;5077123;28;20428;-70
2022/11/16 02:17:04;;;;;;;236.77;151.30;;;;;;;;;;5079005;28;20505;-69
2022/11/16 02:19:32;;;;;;;112.28;60.78;;;;;;;;;;5069926;28;20048;-69
2022/11/16 02:22:24;;;;;;;74.32;39.03;;;;;;;;;;5078286;28;20070;-72
2022/11/16 02:24:55;;;;;;;50.88;27.05;;;;;;;;;;5017406;28;20041;-70
2022/11/16 02:27:40;;;;;;;85.43;48.97;;;;;;;;;;5010487;28;20046;-70
2022/11/16 02:30:05;;;;;;;336.27;167.52;;;;;;;;;;5008039;28;23335;-73
2022/11/16 02:32:56;;;;;;;86.95;33.83;;;;;;;;;;5005549;28;20021;-71
2022/11/16 02:35:26;;;;;;;75.72;26.13;;;;;;;;;;5013241;28;20080;-73
2022/11/16 02:37:51;;;;;;;;;;;;;;;;;;5014262;28;20087;-74
2022/11/16 02:40:18;;;;;;;63.38;26.65;;;;;;;;;;5007607;28;19917;-72
2022/11/16 02:42:46;;;;;;;121.53;29.17;;;;;;;;;;5007947;28;20037;-70
2022/11/16 02:45:16;;;;;;;130.32;26.52;;;;;;;;;;5012298;28;20049;-70
2022/11/16 02:47:43;;;;;;;134.25;30.98;;;;;;;;;;5006568;28;20033;-73
2022/11/16 02:50:13;;;;;;;76.63;30.70;;;;;;;;;;5011898;28;20022;-71
2022/11/16 02:52:38;;;;;;;85.20;35.17;;;;;;;;;;5015162;28;20025;-71
2022/11/16 02:55:03;;;;;;;218.23;45.22;;;;;;;;;;5015321;28;21141;-71
2022/11/16 02:57:41;;;;;;;141.55;45.83;;;;;;;;;;5013841;28;20176;-71
2022/11/16 03:00:07;;;;;;;139.23;42.47;;;;;;;;;;5004086;28;20029;-71
2022/11/16 03:02:32;;;;;;;114.25;38.22;;;;;;;;;;5051064;28;20378;-70
2022/11/16 03:05:06;;;;;;;108.85;36.58;;;;;;;;;;5071357;28;20081;-73
2022/11/16 03:07:34;;;;;;;87.45;38.63;;;;;;;;;;5080215;28;20063;-73
2022/11/16 03:10:00;;;;;;;97.28;39.95;;;;;;;;;;5081220;28;20016;-73
2022/11/16 03:12:30;;;;;;;124.25;42.00;;;;;;;;;;5079527;28;20038;-72
2022/11/16 03:14:55;;;;;;;;;;;;;;;;;;5077816;28;20039;-72
2022/11/16 03:17:27;;;;;;;85.18;34.13;;;;;;;;;;5075326;28;20258;-72
2022/11/16 03:20:07;;;;;;;137.32;40.75;;;;;;;;;;5061130;28;20032;-74
2022/11/16 03:22:43;;;;;;;153.88;44.33;;;;;;;;;;5079370;28;20059;-72
2022/11/16 03:25:11;;;;;;;87.68;37.40;;;;;;;;;;5081367;28;20027;-74
2022/11/16 03:27:38;;;;;;;406.00;51.92;;;;;;;;;;5077207;28;20070;-72
2022/11/16 03:30:05;;;;;;;46.15;32.45;;;;;;;;;;5073128;28;20030;-72
2022/11/16 03:32:34;;;;;;;296.02;52.65;;;;;;;;;;5049985;28;20064;-71
2022/11/16 03:35:03;;;;;;;82.82;38.55;;;;;;;;;;5077829;28;20047;-73
2022/11/16 03:37:29;;;;;;;57.92;40.35;;;;;;;;;;5082399;28;20028;-74
2022/11/16 03:39:55;;;;;;;70.93;50.17;;;;;;;;;;5080622;28;20031;-72
2022/11/16 03:42:21;;;;;;;65.28;44.05;;;;;;;;;;5081927;28;20024;-72
2022/11/16 03:44:47;;;;;;;57.97;41.72;;;;;;;;;;5082229;28;20384;-69
2022/11/16 03:47:12;;;;;;;60.92;41.80;;;;;;;;;;5077633;28;20028;-71
2022/11/16 03:49:37;;;;;;;59.90;41.40;;;;;;;;;;5082307;28;20034;-71
2022/11/16 03:52:03;;;;;;;58.90;42.40;;;;;;;;;;5078321;28;20062;-71
2022/11/16 03:54:29;;;;;;;80.82;53.95;;;;;;;;;;5072002;28;20550;-71
2022/11/16 03:56:54;;;;;;;85.25;57.90;;;;;;;;;;5063195;28;20039;-73
2022/11/16 03:59:19;;;;;;;81.95;57.00;;;;;;;;;;5081801;28;20412;-72
2022/11/16 04:01:44;;;;;;;77.85;52.85;;;;;;;;;;5083577;28;20032;-71
2022/11/16 04:24:11;;;;;;;86.25;60.03;;;;;;;;;;5064694;28;20048;-72
2022/11/16 04:26:06;;;;;;;56.25;39.22;;;;;;;;;;5083375;28;20458;-70
2022/11/16 04:28:33;;;;;;;55.22;37.40;;;;;;;;;;5082195;28;20028;-70
2022/11/16 04:39:11;;;;;;;75.53;52.88;;;;;;;;;;5077563;28;20031;-71
2022/11/16 04:44:21;;;;;;;86.25;58.78;;;;;;;;;;5069258;28;20096;-72
2022/11/16 04:49:30;;;;;;;91.00;62.10;;;;;;;;;;5079755;28;20034;-72
2022/11/16 04:51:55;;;;;;;77.32;55.00;;;;;;;;;;5082623;28;20111;-72
2022/11/16 04:54:20;;;;;;;74.55;53.50;;;;;;;;;;5082101;28;20115;-72
2022/11/16 04:56:46;;;;;;;69.80;53.92;;;;;;;;;;5081144;28;20082;-70
2022/11/16 04:59:11;;;;;;;55.33;45.30;;;;;;;;;;5080303;28;20028;-71
2022/11/16 05:04:20;;;;;;;63.72;51.20;;;;;;;;;;5080319;28;20046;-70
2022/11/16 05:06:46;;;;;;;59.75;47.47;;;;;;;;;;5063115;28;20028;-70
2022/11/16 05:09:11;;;;;;;57.40;46.03;;;;;;;;;;5081787;28;20051;-71
2022/11/16 05:11:37;;;;;;;56.90;46.33;;;;;;;;;;5080708;28;20356;-70
2022/11/16 05:14:02;;;;;;;43.97;33.15;;;;;;;;;;5080486;28;20119;-71
2022/11/16 05:16:27;;;;;;;38.47;29.80;;;;;;;;;;5080164;28;20359;-70
2022/11/16 05:21:36;;;;;;;59.78;44.80;;;;;;;;;;5079789;28;20046;-72
2022/11/16 05:26:45;;;;;;;61.80;48.00;;;;;;;;;;5081482;28;20104;-71
2022/11/16 05:29:11;;;;;;;64.63;50.20;;;;;;;;;;5070697;28;20032;-70
2022/11/16 05:31:36;;;;;;;77.70;54.15;;;;;;;;;;5068386;28;20028;-74
2022/11/16 05:34:01;;;;;;;79.43;55.60;;;;;;;;;;5058536;28;20020;-70
2022/11/16 05:36:27;;;;;;;83.63;59.05;;;;;;;;;;5078377;28;20047;-70
2022/11/16 05:38:52;;;;;;;61.40;42.85;;;;;;;;;;5080992;28;20505;-74
2022/11/16 05:41:17;;;;;;;54.72;43.42;;;;;;;;;;5079372;28;20066;-72
2022/11/16 05:43:42;;;;;;;47.55;38.30;;;;;;;;;;5067946;28;20034;-73
2022/11/16 05:46:08;;;;;;;44.22;37.25;;;;;;;;;;5063173;28;20332;-71
2022/11/16 05:48:33;;;;;;;45.83;36.65;;;;;;;;;;5047355;28;20051;-71
2022/11/16 05:50:59;;;;;;;43.65;36.38;;;;;;;;;;5065877;28;20024;-71
2022/11/16 05:53:24;;;;;;;114.68;84.53;;;;;;;;;;5045086;28;20443;-72
2022/11/16 05:55:49;;;;;;;85.25;62.00;;;;;;;;;;5065395;28;20032;-72
2022/11/16 05:58:15;;;;;;;147.65;96.03;;;;;;;;;;5065486;28;20099;-72
2022/11/16 06:00:40;;;;;;;120.40;81.55;;;;;;;;;;5066105;28;20103;-75
2022/11/16 06:03:05;;;;;;;98.85;72.10;;;;;;;;;;5065296;28;20085;-72
2022/11/16 06:05:32;;;;;;;162.70;120.53;;;;;;;;;;5065763;28;20077;-71
2022/11/16 06:07:58;;;;;;;84.75;66.32;;;;;;;;;;5070682;28;20067;-71
2022/11/16 06:10:23;;;;;;;63.53;48.13;;;;;;;;;;5077832;28;20435;-71
2022/11/16 06:12:48;;;;;;;250.18;182.55;;;;;;;;;;5080973;28;20021;-72
2022/11/16 06:15:14;;;;;;;222.23;160.07;;;;;;;;;;5079106;28;20055;-76
2022/11/16 06:17:39;;;;;;;185.20;133.32;;;;;;;;;;5079221;28;20051;-73
2022/11/16 06:20:04;;;;;;;216.98;160.07;;;;;;;;;;5081104;28;20435;-71
2022/11/16 06:22:30;;;;;;;240.30;187.88;;;;;;;;;;5079329;28;20028;-70
2022/11/16 06:24:55;;;;;;;190.02;150.32;;;;;;;;;;5055451;28;20969;-70
2022/11/16 06:27:20;;;;;;;130.57;104.47;;;;;;;;;;5065420;28;20479;-71
2022/11/16 06:29:46;;;;;;;96.35;74.88;;;;;;;;;;5065192;28;20101;-71
2022/11/16 06:32:11;;;;;;;93.30;71.00;;;;;;;;;;5066602;28;20038;-70
2022/11/16 06:34:36;;;;;;;54.28;45.30;;;;;;;;;;5069570;28;20370;-70
2022/11/16 06:37:01;;;;;;;53.78;45.95;;;;;;;;;;5079756;28;20036;-70
2022/11/16 06:39:27;;;;;;;91.20;77.97;;;;;;;;;;5078598;28;20347;-72
2022/11/16 06:41:52;;;;;;;71.57;59.17;;;;;;;;;;5075311;28;20032;-71
2022/11/16 06:44:17;;;;;;;234.27;148.90;;;;;;;;;;5083811;28;20123;-72
2022/11/16 06:46:43;;;;;;;67.15;48.03;;;;;;;;;;5081475;28;20435;-72
2022/11/16 06:49:08;;;;;;;33.78;29.35;;;;;;;;;;5083477;28;20035;-72
2022/11/16 06:51:33;;;;;;;128.18;89.95;;;;;;;;;;5082202;28;20073;-72
2022/11/16 06:53:59;;;;;;;185.82;138.32;;;;;;;;;;5081917;28;20112;-71
2022/11/16 06:56:24;;;;;;;275.02;200.77;;;;;;;;;;5084483;28;21186;-71
2022/11/16 06:58:49;;;;;;;115.25;88.30;;;;;;;;;;5072897;28;20134;-71
2022/11/16 07:01:14;;;;;;;97.30;78.97;;;;;;;;;;5079670;28;20031;-72
2022/11/16 07:03:40;;;;;;;57.40;46.80;;;;;;;;;;5072201;28;20571;-73
2022/11/16 07:06:09;;;;;;;64.07;51.85;;;;;;;;;;5082743;28;20055;-70
2022/11/16 07:08:34;;;;;;;114.68;99.63;;;;;;;;;;5075667;28;20111;-72
2022/11/16 07:11:03;;;;;;;121.88;106.68;;;;;;;;;;5066200;28;20035;-71
2022/11/16 07:13:30;;;;;;;135.70;119.38;;;;;;;;;;5066601;28;20238;-72
2022/11/16 07:15:59;;;;;;;299.98;198.60;;;;;;;;;;5062280;28;20040;-71
2022/11/16 07:18:24;;;;;;;71.32;52.83;;;;;;;;;;5068153;28;20039;-70
2022/11/16 07:20:49;;;;;;;188.40;114.32;;;;;;;;;;5066628;28;20031;-70
2022/11/16 07:23:15;;;;;;;331.15;214.75;;;;;;;;;;5067961;28;20454;-69
2022/11/16 07:25:40;;;;;;;121.15;90.95;;;;;;;;;;5068016;28;20134;-70
2022/11/16 07:28:05;;;;;;;77.65;65.75;;;;;;;;;;5068174;28;20351;-73
2022/11/16 07:30:31;;;;;;;86.47;76.60;;;;;;;;;;5067117;28;20024;-72
2022/11/16 07:32:59;;;;;;;214.57;157.35;;;;;;;;;;5067095;28;23801;-74
2022/11/16 07:35:24;;;;;;;233.32;167.68;;;;;;;;;;5062525;28;20032;-71
2022/11/16 07:37:51;;;;;;;86.80;69.55;;;;;;;;;;5066068;28;20039;-72
2022/11/16 07:40:16;;;;;;;166.23;126.20;;;;;;;;;;5066391;28;20032;-71
2022/11/16 07:42:43;;;;;;;82.85;69.65;;;;;;;;;;5065394;28;20031;-71
2022/11/16 07:45:08;;;;;;;52.67;42.65;;;;;;;;;;5048976;28;20452;-72
2022/11/16 07:47:35;;;;;;;47.15;34.25;;;;;;;;;;5065917;28;20103;-71
2022/11/16 07:50:00;;;;;;;211.43;161.88;;;;;;;;;;5064559;28;20063;-72
2022/11/16 07:52:25;;;;;;;99.90;71.28;;;;;;;;;;5043339;28;20106;-72
2022/11/16 07:54:51;;;;;;;47.22;37.83;;;;;;;;;;5058340;28;20170;-73
2022/11/16 07:57:16;;;;;;;41.00;29.60;;;;;;;;;;5064679;28;20024;-71
2022/11/16 07:59:41;;;;;;;41.13;30.55;;;;;;;;;;5065687;28;20020;-73
2022/11/16 08:02:08;;;;;;;39.75;31.38;;;;;;;;;;5064495;28;20122;-71
2022/11/16 08:04:33;;;;;;;44.90;33.53;;;;;;;;;;5071232;28;20028;-71
2022/11/16 08:06:59;;;;;;;62.92;46.08;;;;;;;;;;5078161;28;20043;-72
2022/11/16 08:09:24;;;;;;;50.53;39.78;;;;;;;;;;5080901;28;20032;-72
2022/11/16 08:11:50;;;;;;;75.05;61.65;;;;;;;;;;5070897;28;20419;-71
2022/11/16 08:14:17;;;;;;;31.48;27.33;;;;;;;;;;5062404;28;20020;-71
2022/11/16 08:16:42;;;;;;;20.20;17.77;;;;;;;;;;5065762;28;20056;-69
2022/11/16 08:19:09;;;;;;;24.80;22.05;;;;;;;;;;5067261;28;20137;-73
2022/11/16 08:21:34;;;;;;;26.58;23.73;;;;;;;;;;5067318;28;20027;-71
2022/11/16 08:23:59;;;;;;;53.20;45.72;;;;;;;;;;5051723;28;20040;-70
2022/11/16 08:26:25;;;;;;;22.23;19.27;;;;;;;;;;5063387;28;20032;-71
2022/11/16 08:28:52;;;;;;;33.47;28.40;;;;;;;;;;5073112;28;20074;-70
2022/11/16 08:31:22;;;;;;;21.67;19.35;;;;;;;;;;5080710;28;20039;-72
2022/11/16 08:33:48;;;;;;;36.83;32.85;;;;;;;;;;5081300;28;20031;-74
2022/11/16 08:36:16;;;;;;;27.08;24.13;;;;;;;;;;5080327;28;20023;-73
2022/11/16 08:38:48;;;;;;;17.08;15.05;;;;;;;;;;5080812;28;20024;-70
2022/11/16 08:41:13;;;;;;;20.48;18.38;;;;;;;;;;5080471;28;20071;-72
2022/11/16 08:43:39;;;;;;;20.20;18.13;;;;;;;;;;5081242;28;20082;-70
2022/11/16 08:46:08;;;;;;;14.85;12.70;;;;;;;;;;5078955;28;20020;-72
2022/11/16 08:48:33;;;;;;;22.65;20.30;;;;;;;;;;5080877;28;20029;-71
2022/11/16 08:51:09;;;;;;;23.20;19.70;;;;;;;;;;5079500;28;20028;-69
2022/11/16 08:53:35;;;;;;;18.38;14.63;;;;;;;;;;5079847;28;20431;-70
2022/11/16 08:56:02;;;;;;;11.82;9.77;;;;;;;;;;5079261;28;20047;-70
2022/11/16 08:58:27;;;;;;;33.55;29.98;;;;;;;;;;5061463;28;20020;-71
2022/11/16 09:00:52;;;;;;;29.58;22.67;;;;;;;;;;5079436;28;20035;-70
2022/11/16 09:03:18;;;;;;;29.27;23.55;;;;;;;;;;5076547;28;20020;-71
2022/11/16 09:05:45;;;;;;;22.58;19.98;;;;;;;;;;5065571;28;20038;-70
2022/11/16 09:08:11;;;;;;;19.17;16.80;;;;;;;;;;5071495;28;20047;-71
2022/11/16 09:10:36;;;;;;;34.10;30.48;;;;;;;;;;5065888;28;20082;-71
2022/11/16 09:13:02;;;;;;;32.05;28.75;;;;;;;;;;5065675;28;20081;-72
2022/11/16 09:15:28;;;;;;;46.92;40.33;;;;;;;;;;5066743;28;20040;-72
2022/11/16 09:17:53;;;;;;;34.90;27.85;;;;;;;;;;5064937;28;20056;-70
2022/11/16 09:20:19;;;;;;;13.98;11.65;;;;;;;;;;5066308;28;20024;-69
2022/11/16 09:22:44;;;;;;;16.85;15.15;;;;;;;;;;5066230;28;20171;-71
2022/11/16 09:25:10;;;;;;;17.00;15.10;;;;;;;;;;5066595;28;20040;-73
2022/11/16 09:27:35;;;;;;;14.13;12.55;;;;;;;;;;5073390;28;20107;-72
2022/11/16 09:30:00;;;;;;;17.45;14.15;;;;;;;;;;5065044;28;20024;-71
2022/11/16 09:32:26;;;;;;;28.27;25.30;;;;;;;;;;5068188;28;20093;-71
2022/11/16 09:34:52;;;;;;;14.88;12.07;;;;;;;;;;5068592;28;20409;-73
2022/11/16 09:37:18;;;;;;;65.82;52.63;;;;;;;;;;5079734;28;20198;-73
2022/11/16 09:39:43;;;;;;;32.45;27.73;;;;;;;;;;5080808;28;20107;-70
2022/11/16 09:42:27;;;;;;;20.10;17.95;;;;;;;;;;5076819;28;20101;-72
2022/11/16 09:45:03;;;;;;;23.42;18.63;;;;;;;;;;5079075;28;20016;-71
2022/11/16 09:47:39;;;;;;;28.20;22.33;;;;;;;;;;5077450;28;20374;-72
2022/11/16 09:50:06;;;;;;;19.15;16.27;;;;;;;;;;5072565;28;20464;-71
2022/11/16 09:52:34;;;;;;;60.08;35.40;;;;;;;;;;5066805;28;20020;-72
2022/11/16 09:55:02;;;;;;;12.77;10.80;;;;;;;;;;5064984;28;20063;-73
2022/11/16 09:57:30;;;;;;;16.33;13.60;;;;;;;;;;5047488;28;20028;-73
2022/11/16 09:59:57;;;;;;;17.92;13.98;;;;;;;;;;5063501;28;20152;-73
2022/11/16 10:02:30;;;;;;;14.55;10.95;;;;;;;;;;5046773;28;20020;-71
2022/11/16 10:05:07;;;;;;;47.03;32.00;;;;;;;;;;5066404;28;20032;-72
2022/11/16 10:07:40;;;;;;;19.15;16.25;;;;;;;;;;5063825;28;20030;-72
2022/11/16 10:10:07;;;;;;;14.57;11.50;;;;;;;;;;5070609;28;20032;-71
2022/11/16 10:12:32;;;;;;;11.40;9.98;;;;;;;;;;5083252;28;20035;-70
2022/11/16 10:15:00;;;;;;;18.02;13.60;;;;;;;;;;5083331;28;21183;-72
2022/11/16 10:17:44;;;;;;;24.25;16.67;;;;;;;;;;5082299;28;20032;-72
2022/11/16 10:20:10;;;;;;;26.85;19.58;;;;;;;;;;5083834;28;20036;-72
2022/11/16 10:22:47;;;;;;;42.40;26.08;;;;;;;;;;5083275;28;20024;-72
2022/11/16 10:25:20;;;;;;;26.63;18.17;;;;;;;;;;5082801;28;20028;-72
2022/11/16 10:27:46;;;;;;;22.70;15.88;;;;;;;;;;5071117;28;20093;-71
2022/11/16 10:30:13;;;;;;;18.92;14.75;;;;;;;;;;5068156;28;20444;-70
2022/11/16 10:32:53;;;;;;;17.52;14.38;;;;;;;;;;5065983;28;20051;-69
2022/11/16 10:35:32;;;;;;;13.15;11.85;;;;;;;;;;5067717;28;20036;-71
2022/11/16 10:38:01;;;;;;;13.60;12.05;;;;;;;;;;5069115;28;20507;-70
2022/11/16 10:40:35;;;;;;;12.40;10.52;;;;;;;;;;5069762;28;20500;-71
2022/11/16 10:43:09;;;;;;;10.57;9.40;;;;;;;;;;5069468;28;20059;-70
2022/11/16 10:45:38;;;;;;;14.40;11.98;;;;;;;;;;5069396;28;20031;-73
2022/11/16 10:48:10;;;;;;;18.23;12.67;;;;;;;;;;5075410;28;20032;-71
2022/11/16 10:50:41;;;;;;;10.18;8.20;;;;;;;;;;5079330;28;20030;-72
2022/11/16 10:53:10;;;;;;;11.88;10.25;;;;;;;;;;5064069;28;20346;-71
2022/11/16 10:55:35;;;;;;;;;;;;;;;;;;5084490;28;20028;-70
2022/11/16 10:58:02;;;;;;;9.97;8.13;;;;;;;;;;5082930;28;20020;-73
2022/11/16 11:00:47;;;;;;;10.75;9.63;;;;;;;;;;5081666;28;21081;-72
2022/11/16 11:03:13;;;;;;;11.52;9.93;;;;;;;;;;5081571;28;20503;-72
2022/11/16 11:05:46;;;;;;;13.15;9.93;;;;;;;;;;5083425;28;20103;-70
2022/11/16 11:08:11;;;;;;;10.10;9.05;;;;;;;;;;5070063;28;20328;-69
2022/11/16 11:10:37;;;;;;;11.98;10.52;;;;;;;;;;5067526;28;20038;-69
2022/11/16 11:13:05;;;;;;;14.73;13.15;;;;;;;;;;5067736;28;20111;-70
2022/11/16 11:15:31;;;;;;;10.90;9.57;;;;;;;;;;5069161;28;20041;-69
2022/11/16 11:18:10;;;;;;;11.88;10.00;;;;;;;;;;5044266;28;20067;-71
2022/11/16 11:20:35;;;;;;;;;;;;;;;;;;5049639;28;20028;-71
2022/11/16 11:23:20;;;;;;;9.97;8.03;;;;;;;;;;5044623;28;19931;-71
2022/11/16 11:25:55;;;;;;;16.58;12.32;;;;;;;;;;5046567;28;20265;-72
2022/11/16 11:28:30;;;;;;;23.52;20.48;;;;;;;;;;5063931;28;20020;-73
2022/11/16 11:31:25;;;;;;;28.15;22.23;;;;;;;;;;5054755;28;20028;-71
2022/11/16 11:34:11;;;;;;;14.68;12.95;;;;;;;;;;5002415;28;20064;-71
2022/11/16 11:36:39;;;;;;;17.77;12.73;;;;;;;;;;5008242;28;20049;-71
2022/11/16 11:39:10;;;;;;;19.13;17.10;;;;;;;;;;5005589;28;20052;-68
2022/11/16 11:41:39;;;;;;;18.38;15.32;;;;;;;;;;5005593;28;20426;-69
2022/11/16 11:44:05;;;;;;;25.77;21.95;;;;;;;;;;5004013;28;20045;-72
2022/11/16 11:46:35;;;;;;;12.32;9.60;;;;;;;;;;5007926;28;20475;-71
2022/11/16 11:49:13;;;;;;;20.33;14.43;;;;;;;;;;5002212;28;20036;-71
2022/11/16 11:51:41;;;;;;;34.75;24.08;;;;;;;;;;5003371;28;20052;-71
2022/11/16 11:54:13;;;;;;;30.85;25.02;;;;;;;;;;5003780;28;20073;-73
2022/11/16 11:56:38;;;;;;;30.83;27.13;;;;;;;;;;5003939;28;20140;-71
2022/11/16 11:59:03;;;;;;;22.98;19.90;;;;;;;;;;4989041;28;20037;-69
2022/11/16 12:01:40;;;;;;;20.98;16.92;;;;;;;;;;5021332;28;20044;-69
2022/11/16 12:04:24;;;;;;;40.80;31.20;;;;;;;;;;5005738;28;20041;-69
2022/11/16 12:06:59;;;;;;;34.85;26.02;;;;;;;;;;5018043;28;20036;-69
2022/11/16 12:09:33;;;;;;;30.40;23.38;;;;;;;;;;5024021;28;20051;-69
2022/11/16 12:12:01;;;;;;;32.83;20.42;;;;;;;;;;5062301;28;20059;-69
2022/11/16 12:14:26;;;;;;;19.85;17.77;;;;;;;;;;5060845;28;20028;-69
2022/11/16 12:16:55;;;;;;;21.67;19.13;;;;;;;;;;5057344;28;20033;-70
2022/11/16 12:19:39;;;;;;;18.23;16.02;;;;;;;;;;5075756;28;20047;-69
2022/11/16 12:22:04;;;;;;;17.10;12.60;;;;;;;;;;5080692;28;20055;-71
2022/11/16 12:24:51;;;;;;;19.17;14.32;;;;;;;;;;5080030;28;20128;-71
2022/11/16 12:27:26;;;;;;;23.10;16.65;;;;;;;;;;5080789;28;20035;-72
2022/11/16 12:30:01;;;;;;;31.52;25.02;;;;;;;;;;5082069;28;20610;-68
2022/11/16 12:32:26;;;;;;;24.48;16.83;;;;;;;;;;5082676;28;20034;-69
2022/11/16 12:34:52;;;;;;;28.05;20.45;;;;;;;;;;5079776;28;20032;-70
2022/11/16 12:37:20;;;;;;;32.45;23.88;;;;;;;;;;5081052;28;20088;-69
2022/11/16 12:40:06;;;;;;;32.63;23.15;;;;;;;;;;5079891;28;20069;-72
2022/11/16 12:42:44;;;;;;;55.30;40.47;;;;;;;;;;5081600;28;20514;-69
2022/11/16 12:45:24;;;;;;;18.65;16.20;;;;;;;;;;5081368;28;20028;-71
2022/11/16 12:47:55;;;;;;;13.13;11.73;;;;;;;;;;5081778;28;20133;-70
2022/11/16 12:50:31;;;;;;;39.05;29.13;;;;;;;;;;5081110;28;20043;-71
2022/11/16 12:52:59;;;;;;;52.20;36.55;;;;;;;;;;5080304;28;20028;-72
2022/11/16 12:55:33;;;;;;;49.55;36.03;;;;;;;;;;5081110;28;20032;-70
2022/11/16 12:58:17;;;;;;;44.35;31.63;;;;;;;;;;5081514;28;20024;-70
2022/11/16 13:01:05;;;;;;;41.83;30.85;;;;;;;;;;5080254;28;20038;-69
2022/11/16 13:03:31;;;;;;;22.70;17.98;;;;;;;;;;5074025;28;20127;-70
2022/11/16 13:06:02;;;;;;;31.85;25.15;;;;;;;;;;5081858;28;20106;-68
2022/11/16 13:08:27;;;;;;;28.92;22.13;;;;;;;;;;5080940;28;20039;-69
2022/11/16 13:10:56;;;;;;;44.95;34.08;;;;;;;;;;5081243;28;20036;-69
2022/11/16 13:13:24;;;;;;;58.53;43.10;;;;;;;;;;5080933;28;20034;-69
2022/11/16 13:15:50;;;;;;;34.03;27.83;;;;;;;;;;5080628;28;20609;-69
2022/11/16 13:18:17;;;;;;;19.08;15.65;;;;;;;;;;5081315;28;20064;-71
2022/11/16 13:20:42;;;;;;;25.05;18.77;;;;;;;;;;5077364;28;20027;-69
2022/11/16 13:23:11;;;;;;;223.75;119.45;;;;;;;;;;5081454;28;20024;-71
2022/11/16 13:25:44;;;;;;;24.58;18.08;;;;;;;;;;5080092;28;20074;-71
2022/11/16 13:28:22;;;;;;;15.73;10.10;;;;;;;;;;5080029;28;20024;-69
2022/11/16 13:31:00;;;;;;;29.67;26.48;;;;;;;;;;5080489;28;20105;-69
2022/11/16 13:33:30;;;;;;;99.93;55.67;;;;;;;;;;5080241;28;20036;-70
2022/11/16 13:35:56;;;;;;;35.60;28.10;;;;;;;;;;5081834;28;20101;-69
2022/11/16 13:38:40;;;;;;;21.02;18.77;;;;;;;;;;5080182;28;20436;-69
2022/11/16 13:41:24;;;;;;;34.72;21.85;;;;;;;;;;5081530;28;20395;-68
2022/11/16 13:43:49;;;;;;;34.13;27.98;;;;;;;;;;5080422;28;20023;-70
2022/11/16 13:46:14;;;;;;;13.07;11.68;;;;;;;;;;5083383;28;20028;-67
2022/11/16 13:48:43;;;;;;;16.15;11.45;;;;;;;;;;5085588;28;20507;-70
2022/11/16 13:51:16;;;;;;;54.13;37.03;;;;;;;;;;5085258;28;20336;-71
2022/11/16 13:53:46;;;;;;;81.43;53.55;;;;;;;;;;5085237;28;20035;-68
2022/11/16 13:56:12;;;;;;;18.65;14.50;;;;;;;;;;5085320;28;20131;-70
2022/11/16 13:58:42;;;;;;;102.47;71.20;;;;;;;;;;5084711;28;20484;-70
2022/11/16 14:01:13;;;;;;;88.97;65.68;;;;;;;;;;5085906;28;20031;-71
2022/11/16 14:03:42;;;;;;;56.38;41.63;;;;;;;;;;5083677;28;20028;-70
2022/11/16 14:06:22;;;;;;;43.92;31.25;;;;;;;;;;5082846;28;20147;-70
2022/11/16 14:08:51;;;;;;;20.05;17.63;;;;;;;;;;5082111;28;20062;-69
2022/11/16 14:11:33;;;;;;;13.13;11.82;;;;;;;;;;5082881;28;20024;-71
2022/11/16 14:14:04;;;;;;;14.20;10.32;;;;;;;;;;5082719;28;20039;-70
2022/11/16 14:16:31;;;;;;;20.63;15.07;;;;;;;;;;5085550;28;20036;-71
2022/11/16 14:19:00;;;;;;;51.10;34.08;;;;;;;;;;5083789;28;20105;-69
2022/11/16 14:21:44;;;;;;;27.05;18.73;;;;;;;;;;5083746;28;20090;-69
2022/11/16 14:24:15;;;;;;;14.15;11.60;;;;;;;;;;5085519;28;20028;-73
2022/11/16 14:26:47;;;;;;;16.00;14.02;;;;;;;;;;5084084;28;20036;-69
2022/11/16 14:29:22;;;;;;;21.58;16.13;;;;;;;;;;5082948;28;20055;-69
2022/11/16 14:31:49;;;;;;;13.38;12.00;;;;;;;;;;5081639;28;20020;-68
2022/11/16 14:34:30;;;;;;;25.77;18.25;;;;;;;;;;5084081;28;20100;-69
2022/11/16 14:36:56;;;;;;;35.25;30.17;;;;;;;;;;5081515;28;20063;-70
2022/11/16 14:39:36;;;;;;;43.55;33.63;;;;;;;;;;5084328;28;20032;-70
2022/11/16 14:42:06;;;;;;;47.08;36.95;;;;;;;;;;5084603;28;20059;-69
2022/11/16 14:44:37;;;;;;;64.55;48.70;;;;;;;;;;5084540;28;20063;-70
2022/11/16 14:47:03;;;;;;;97.80;81.53;;;;;;;;;;5085367;28;20385;-70
2022/11/16 14:49:30;;;;;;;39.75;33.95;;;;;;;;;;5084004;28;20522;-69
2022/11/16 14:51:58;;;;;;;62.25;46.97;;;;;;;;;;5083436;28;20088;-68
2022/11/16 14:54:23;;;;;;;47.63;42.67;;;;;;;;;;5083178;28;20517;-69
2022/11/16 14:56:59;;;;;;;32.08;28.73;;;;;;;;;;5080260;28;20111;-69
2022/11/16 14:59:25;;;;;;;51.10;45.75;;;;;;;;;;5084458;28;20035;-70
2022/11/16 15:01:51;;;;;;;69.75;58.10;;;;;;;;;;5080339;28;20020;-71
2022/11/16 15:04:17;;;;;;;106.75;87.55;;;;;;;;;;5083857;28;20076;-71
2022/11/16 15:06:48;;;;;;;55.30;44.88;;;;;;;;;;5084104;28;20359;-69